Terminal Aerodrome Forecast
Issued by NWS

Home | Current Version | Previous Version | Graphics & Text | Print | Product List | Glossary Off
Versions: 1 2 3 4 5 6 7 8 9 10 11 12 13 14 15 16

125
FTUS42 KMHX 231721
TAFISO
TAF
KISO 231721Z 2318/2418 21008KT P6SM SCT025
     FM232000 21008KT P6SM VCTS BKN040CB
     FM240300 VRB04KT P6SM BKN050
     FM240800 VRB03KT 3SM BR SCT020 OVC070
     FM241200 02006KT P6SM BKN050
      AMD LTD TO CLD VIS AND WIND=

USA.gov is the U.S. government's official web portal to all federal, state and local government web resources and services.